createdAt,value
2023-05-04T00:02:03.461Z,11.22
2023-05-04T00:04:30.002Z,11.21
2023-05-04T00:06:56.419Z,11.20
2023-05-04T00:09:22.835Z,11.18
2023-05-04T00:11:49.260Z,11.18
2023-05-04T00:14:15.706Z,11.18
2023-05-04T00:16:42.158Z,11.18
2023-05-04T00:19:08.598Z,11.15
2023-05-04T00:21:35.093Z,11.14
2023-05-04T00:24:02.349Z,11.13
2023-05-04T00:26:28.876Z,11.11
2023-05-04T00:28:55.417Z,11.07
2023-05-04T00:31:22.122Z,11.04
2023-05-04T00:33:48.556Z,11.01
2023-05-04T00:36:14.987Z,10.98
2023-05-04T00:38:51.956Z,10.92
2023-05-04T00:41:19.669Z,10.91
2023-05-04T00:43:46.765Z,10.87
2023-05-04T00:46:14.039Z,10.84
2023-05-04T00:48:48.679Z,10.78
2023-05-04T00:51:16.980Z,10.76
2023-05-04T00:53:44.036Z,10.73
2023-05-04T00:56:11.071Z,10.70
2023-05-04T00:58:37.444Z,10.66
2023-05-04T01:01:04.107Z,10.64
2023-05-04T01:03:31.518Z,10.62
2023-05-04T01:06:22.327Z,10.55
2023-05-04T01:09:03.872Z,10.54
2023-05-04T01:11:58.257Z,10.50
2023-05-04T01:14:25.310Z,10.49
2023-05-04T01:16:58.566Z,10.43
2023-05-04T01:19:27.598Z,10.41
2023-05-04T01:21:54.012Z,10.38
2023-05-04T01:24:21.044Z,10.34
2023-05-04T01:26:52.286Z,10.32
2023-05-04T01:29:27.577Z,10.28
2023-05-04T01:31:55.670Z,10.29
2023-05-04T01:34:22.602Z,10.27
2023-05-04T01:36:49.517Z,10.26
2023-05-04T01:39:16.027Z,10.24
2023-05-04T01:41:42.708Z,10.23
2023-05-04T01:44:09.232Z,10.19
2023-05-04T01:46:35.761Z,10.17
2023-05-04T01:49:02.348Z,10.15
2023-05-04T01:51:28.806Z,10.12
2023-05-04T01:53:55.266Z,10.11
2023-05-04T01:56:22.193Z,10.08
2023-05-04T01:58:48.733Z,10.07
2023-05-04T02:01:15.250Z,10.03
2023-05-04T02:03:42.071Z,9.99
2023-05-04T02:06:08.704Z,9.97
2023-05-04T02:08:35.187Z,9.94
2023-05-04T02:11:01.556Z,9.93
2023-05-04T02:13:28.017Z,9.89
2023-05-04T02:15:54.625Z,9.88
2023-05-04T02:18:21.112Z,9.85
2023-05-04T02:20:47.583Z,9.83
2023-05-04T02:23:13.998Z,9.78
2023-05-04T02:25:41.689Z,9.77
2023-05-04T02:28:08.276Z,9.74
2023-05-04T02:30:34.778Z,9.70
2023-05-04T02:33:01.512Z,9.67
2023-05-04T02:35:28.077Z,9.64
2023-05-04T02:37:54.561Z,9.61
2023-05-04T02:40:20.952Z,9.58
2023-05-04T02:42:47.473Z,9.55
2023-05-04T02:45:14.040Z,9.54
2023-05-04T02:47:40.638Z,9.52
2023-05-04T02:50:07.913Z,9.50
2023-05-04T02:52:34.632Z,9.48
2023-05-04T02:55:03.108Z,9.45
2023-05-04T02:57:29.560Z,9.45
2023-05-04T02:59:56.045Z,9.43
2023-05-04T03:02:22.515Z,9.41
2023-05-04T03:04:49.043Z,9.37
2023-05-04T03:07:15.537Z,9.36
2023-05-04T03:09:42.050Z,9.35
2023-05-04T03:12:08.580Z,9.33
2023-05-04T03:14:35.101Z,9.30
2023-05-04T03:17:01.555Z,9.27
2023-05-04T03:19:27.970Z,9.24
2023-05-04T03:21:54.509Z,9.21
2023-05-04T03:24:21.013Z,9.20
2023-05-04T03:26:47.702Z,9.17
2023-05-04T03:29:14.249Z,9.15
2023-05-04T03:31:40.784Z,9.12
2023-05-04T03:34:09.605Z,9.10
2023-05-04T03:36:36.256Z,9.06
2023-05-04T03:39:03.056Z,9.03
2023-05-04T03:41:29.602Z,9.02
2023-05-04T03:43:56.138Z,8.98
2023-05-04T03:46:22.583Z,8.97
2023-05-04T03:48:49.145Z,8.98
2023-05-04T03:51:15.675Z,8.95
2023-05-04T03:53:43.441Z,8.93
2023-05-04T03:56:11.216Z,8.90
2023-05-04T03:58:37.806Z,8.89
2023-05-04T04:01:04.554Z,8.88
2023-05-04T04:03:31.475Z,8.87
2023-05-04T04:05:58.024Z,8.85
2023-05-04T04:08:24.801Z,8.84
2023-05-04T04:10:51.358Z,8.82
2023-05-04T04:13:17.906Z,8.80
2023-05-04T04:15:46.419Z,8.79
2023-05-04T04:18:13.102Z,8.80
2023-05-04T04:20:39.518Z,8.79
2023-05-04T04:23:06.003Z,8.79
2023-05-04T04:25:32.551Z,8.79
2023-05-04T04:27:59.009Z,8.78
2023-05-04T04:30:25.756Z,8.79
2023-05-04T04:32:52.333Z,8.80
2023-05-04T04:35:18.872Z,8.80
2023-05-04T04:37:45.315Z,8.81
2023-05-04T04:40:13.250Z,8.84
2023-05-04T04:42:39.731Z,8.86
2023-05-04T04:45:07.040Z,8.89
2023-05-04T04:47:33.925Z,8.91
2023-05-04T04:50:00.414Z,8.92
2023-05-04T04:52:26.968Z,8.95
2023-05-04T04:54:53.406Z,8.97
2023-05-04T04:57:20.031Z,8.99
2023-05-04T04:59:46.377Z,9.02
2023-05-04T05:02:12.893Z,9.06
2023-05-04T05:04:40.872Z,9.09
2023-05-04T05:07:10.461Z,9.13
2023-05-04T05:09:37.546Z,9.17
2023-05-04T05:12:05.262Z,9.21
2023-05-04T05:14:31.969Z,9.23
2023-05-04T05:16:59.510Z,9.27
2023-05-04T05:19:26.154Z,9.31
2023-05-04T05:21:53.022Z,9.33
2023-05-04T05:24:19.622Z,9.37
2023-05-04T05:26:46.216Z,9.39
2023-05-04T05:29:12.728Z,9.44
2023-05-04T05:31:39.351Z,9.46
2023-05-04T05:34:05.949Z,9.48
2023-05-04T05:36:32.611Z,9.51
2023-05-04T05:38:59.188Z,9.52
2023-05-04T05:41:25.803Z,9.56
2023-05-04T05:43:52.259Z,9.58
2023-05-04T05:46:18.923Z,9.60
2023-05-04T05:48:45.483Z,9.63
2023-05-04T05:51:12.061Z,9.65
2023-05-04T05:56:06.430Z,9.69
2023-05-04T05:58:32.816Z,9.71
2023-05-04T06:00:59.346Z,9.73
2023-05-04T06:03:26.048Z,9.78
2023-05-04T06:05:52.636Z,9.81
2023-05-04T06:08:19.015Z,9.85
2023-05-04T06:10:45.967Z,9.90
2023-05-04T06:13:12.499Z,9.96
2023-05-04T06:15:39.107Z,10.01
2023-05-04T06:18:05.585Z,10.08
2023-05-04T06:20:32.259Z,10.16
2023-05-04T06:22:58.661Z,10.22
2023-05-04T06:25:25.294Z,10.29
2023-05-04T06:27:51.670Z,10.38
2023-05-04T06:30:18.582Z,10.46
2023-05-04T06:32:47.349Z,10.57
2023-05-04T06:35:13.972Z,10.66
2023-05-04T06:37:40.588Z,10.77
2023-05-04T06:40:07.886Z,10.88
2023-05-04T06:42:34.552Z,10.97
2023-05-04T06:45:01.024Z,11.06
2023-05-04T06:47:27.434Z,11.16
2023-05-04T06:49:54.986Z,11.25
2023-05-04T06:52:21.658Z,11.32
2023-05-04T06:54:48.264Z,11.43
2023-05-04T06:57:14.964Z,11.53
2023-05-04T06:59:41.408Z,11.64
2023-05-04T07:02:07.760Z,11.76
2023-05-04T07:04:34.203Z,11.87
2023-05-04T07:07:00.516Z,11.99
2023-05-04T07:09:27.210Z,12.08
2023-05-04T07:11:53.553Z,12.19
2023-05-04T07:14:20.038Z,12.29
2023-05-04T07:16:46.456Z,12.37
2023-05-04T07:19:12.928Z,12.48
2023-05-04T07:21:39.344Z,12.59
2023-05-04T07:24:06.931Z,12.70
2023-05-04T07:26:36.168Z,12.81
2023-05-04T07:29:02.559Z,12.94
2023-05-04T07:31:30.605Z,13.06
2023-05-04T07:33:57.457Z,13.16
2023-05-04T07:36:26.512Z,13.27
2023-05-04T07:38:53.561Z,13.38
2023-05-04T07:41:20.267Z,13.50
2023-05-04T07:43:46.882Z,13.59
2023-05-04T07:46:13.592Z,13.68
2023-05-04T07:48:40.139Z,13.79
2023-05-04T07:51:06.504Z,13.87
2023-05-04T07:53:33.019Z,13.97
2023-05-04T07:56:07.744Z,14.03
2023-05-04T07:58:34.128Z,14.17
2023-05-04T08:01:00.671Z,14.30
2023-05-04T08:03:27.051Z,14.40
2023-05-04T08:05:53.522Z,14.54
2023-05-04T08:08:21.293Z,14.65
2023-05-04T08:10:48.217Z,14.79
2023-05-04T08:13:14.595Z,14.92
2023-05-04T08:15:41.282Z,15.06
2023-05-04T08:18:07.763Z,15.21
2023-05-04T08:20:34.418Z,15.34
2023-05-04T08:23:02.656Z,15.49
2023-05-04T08:25:29.474Z,15.63
2023-05-04T08:27:56.143Z,15.77
2023-05-04T08:30:23.182Z,15.91
2023-05-04T08:32:51.295Z,16.05
2023-05-04T08:35:17.847Z,16.19
2023-05-04T08:37:44.217Z,16.33
2023-05-04T08:40:12.423Z,16.48
2023-05-04T08:42:40.244Z,16.63
2023-05-04T08:45:07.461Z,16.79
2023-05-04T08:47:33.915Z,16.93
2023-05-04T08:50:00.930Z,17.03
2023-05-04T08:52:28.109Z,17.14
2023-05-04T08:54:56.655Z,17.23
2023-05-04T08:57:24.287Z,17.31
2023-05-04T08:59:53.326Z,17.38
2023-05-04T09:02:22.349Z,17.45
2023-05-04T09:04:49.950Z,17.50
2023-05-04T09:07:18.414Z,17.53
2023-05-04T09:09:45.410Z,17.57
2023-05-04T09:12:12.440Z,17.62
2023-05-04T09:14:39.356Z,17.65
2023-05-04T09:17:17.838Z,17.67
2023-05-04T09:19:44.624Z,17.75
2023-05-04T09:22:21.218Z,17.80
2023-05-04T09:24:47.725Z,17.91
2023-05-04T09:27:18.608Z,18.00
2023-05-04T09:29:53.539Z,18.08
2023-05-04T09:32:20.353Z,18.21
2023-05-04T09:34:54.513Z,18.29
2023-05-04T09:37:22.083Z,18.36
2023-05-04T09:39:58.670Z,18.42
2023-05-04T09:42:26.679Z,18.53
2023-05-04T09:45:01.562Z,18.58
2023-05-04T09:47:47.118Z,18.67
2023-05-04T09:50:15.099Z,18.79
2023-05-04T09:52:44.131Z,18.86
2023-05-04T09:55:13.496Z,18.94
2023-05-04T09:57:44.607Z,19.04
2023-05-04T10:00:16.149Z,19.15
2023-05-04T10:02:48.230Z,19.27
2023-05-04T10:05:17.244Z,19.41
2023-05-04T10:07:44.773Z,19.54
2023-05-04T10:10:15.759Z,19.65
2023-05-04T10:12:44.931Z,19.77
2023-05-04T10:15:12.300Z,19.88
2023-05-04T10:18:04.789Z,19.96
2023-05-04T10:20:52.585Z,20.07
2023-05-04T10:23:56.138Z,20.18
2023-05-04T10:26:51.314Z,20.25
2023-05-04T10:29:23.650Z,20.33
2023-05-04T10:31:51.130Z,20.38
2023-05-04T10:34:34.304Z,20.36
2023-05-04T10:37:03.011Z,20.47
2023-05-04T10:39:32.583Z,20.52
2023-05-04T10:42:02.039Z,20.61
2023-05-04T10:44:29.596Z,20.70
2023-05-04T10:47:04.197Z,20.82
2023-05-04T10:49:32.697Z,20.96
2023-05-04T10:52:08.747Z,21.08
2023-05-04T10:54:37.143Z,21.27
2023-05-04T10:57:05.489Z,21.46
2023-05-04T10:59:34.757Z,21.71
2023-05-04T11:02:03.546Z,21.95
2023-05-04T11:04:30.977Z,22.17
2023-05-04T11:07:01.766Z,22.40
2023-05-04T11:09:29.148Z,22.63
2023-05-04T11:11:56.270Z,22.87
2023-05-04T11:14:25.985Z,23.12
2023-05-04T11:16:53.443Z,23.35
2023-05-04T11:19:19.952Z,23.55
2023-05-04T11:21:46.988Z,23.76
2023-05-04T11:24:13.589Z,23.99
2023-05-04T11:26:48.813Z,24.18
2023-05-04T11:29:15.826Z,24.44
2023-05-04T11:31:44.317Z,24.64
2023-05-04T11:34:18.982Z,24.78
2023-05-04T11:36:45.379Z,24.93
2023-05-04T11:39:11.978Z,24.99
2023-05-04T11:41:38.605Z,25.00
2023-05-04T11:44:06.367Z,25.00
2023-05-04T11:46:34.345Z,25.01
2023-05-04T11:49:01.188Z,25.02
2023-05-04T11:51:29.099Z,25.05
2023-05-04T11:53:56.628Z,25.07
2023-05-04T11:56:23.039Z,25.08
2023-05-04T11:58:49.477Z,25.07
2023-05-04T12:01:15.940Z,25.10
2023-05-04T12:03:52.448Z,25.18
2023-05-04T12:06:30.238Z,25.32
2023-05-04T12:09:01.930Z,25.52
2023-05-04T12:11:28.688Z,25.80
2023-05-04T12:14:04.106Z,26.05
2023-05-04T12:16:30.665Z,26.39
2023-05-04T12:19:05.944Z,26.70
2023-05-04T12:21:33.526Z,27.09
2023-05-04T12:24:00.301Z,27.43
2023-05-04T12:26:27.520Z,27.81
2023-05-04T12:28:54.049Z,28.18
2023-05-04T12:31:21.292Z,28.54
2023-05-04T12:33:50.164Z,28.84
2023-05-04T12:36:17.245Z,29.10
2023-05-04T12:38:43.541Z,29.30
2023-05-04T12:41:11.296Z,29.49
2023-05-04T12:43:38.209Z,29.71
2023-05-04T12:46:04.659Z,29.93
2023-05-04T12:48:32.486Z,30.14
2023-05-04T12:50:59.850Z,30.36
2023-05-04T12:53:31.850Z,30.57
2023-05-04T12:56:02.174Z,30.78
2023-05-04T12:58:28.701Z,31.00
2023-05-04T13:00:56.043Z,31.17
2023-05-04T13:03:22.677Z,31.31
2023-05-04T13:05:49.685Z,31.49
2023-05-04T13:08:17.335Z,31.66
2023-05-04T13:10:43.751Z,31.83
2023-05-04T13:13:10.114Z,32.02
2023-05-04T13:15:36.507Z,32.23
2023-05-04T13:18:03.007Z,32.44
2023-05-04T13:20:29.519Z,32.65
2023-05-04T13:22:58.323Z,32.86
2023-05-04T13:25:25.517Z,33.08
2023-05-04T13:27:52.600Z,33.28
2023-05-04T13:30:20.426Z,33.44
2023-05-04T13:32:46.911Z,33.53
2023-05-04T13:35:13.476Z,33.60
2023-05-04T13:37:39.794Z,33.69
2023-05-04T13:40:06.754Z,33.79
2023-05-04T13:42:35.033Z,33.92
2023-05-04T13:45:03.051Z,34.11
2023-05-04T13:47:29.524Z,34.29
2023-05-04T13:49:55.909Z,34.43
2023-05-04T13:52:22.369Z,34.57
2023-05-04T13:54:49.416Z,34.77
2023-05-04T13:57:15.870Z,34.92
2023-05-04T13:59:48.820Z,35.02
2023-05-04T14:02:25.185Z,35.07
2023-05-04T14:04:51.765Z,35.04
2023-05-04T14:07:18.358Z,34.96
2023-05-04T14:09:44.824Z,34.89
2023-05-04T14:12:11.195Z,34.85
2023-05-04T14:14:37.558Z,34.81
2023-05-04T14:17:04.077Z,34.74
2023-05-04T14:19:30.507Z,34.63
2023-05-04T14:21:56.946Z,34.52
2023-05-04T14:24:24.665Z,34.42
2023-05-04T14:26:51.167Z,34.36
2023-05-04T14:29:17.518Z,34.34
2023-05-04T14:31:43.924Z,34.36
2023-05-04T14:34:10.804Z,34.37
2023-05-04T14:36:37.238Z,34.36
2023-05-04T14:39:03.794Z,34.31
2023-05-04T14:41:33.685Z,34.22
2023-05-04T14:44:00.548Z,34.12
2023-05-04T14:46:29.220Z,34.00
2023-05-04T14:48:55.802Z,33.87
2023-05-04T14:51:23.631Z,33.67
2023-05-04T14:53:50.525Z,33.50
2023-05-04T14:56:16.935Z,33.33
2023-05-04T14:58:43.525Z,33.19
2023-05-04T15:01:09.961Z,33.02
2023-05-04T15:03:36.423Z,32.86
2023-05-04T15:06:03.565Z,32.71
2023-05-04T15:08:30.099Z,32.58
2023-05-04T15:10:59.860Z,32.44
2023-05-04T15:13:26.532Z,32.35
2023-05-04T15:15:52.987Z,32.25
2023-05-04T15:18:20.826Z,32.18
2023-05-04T15:20:47.224Z,32.14
2023-05-04T15:23:13.562Z,32.17
2023-05-04T15:25:40.953Z,32.23
2023-05-04T15:28:10.497Z,32.31
2023-05-04T15:30:39.972Z,32.36
2023-05-04T15:33:06.995Z,32.40
2023-05-04T15:35:35.003Z,32.46
2023-05-04T15:38:01.840Z,32.49
2023-05-04T15:40:29.093Z,32.50
2023-05-04T15:42:56.023Z,32.45
2023-05-04T15:45:22.483Z,32.35
2023-05-04T15:47:49.241Z,32.26
2023-05-04T15:50:15.820Z,32.20
2023-05-04T15:52:42.192Z,32.15
2023-05-04T15:55:24.254Z,32.05
2023-05-04T15:57:52.312Z,31.92
2023-05-04T16:00:19.102Z,31.73
2023-05-04T16:02:45.516Z,31.54
2023-05-04T16:05:12.019Z,31.32
2023-05-04T16:07:38.499Z,31.11
2023-05-04T16:10:05.720Z,30.90
2023-05-04T16:12:32.267Z,30.72
2023-05-04T16:14:58.684Z,30.54
2023-05-04T16:17:25.662Z,30.35
2023-05-04T16:19:52.070Z,30.16
2023-05-04T16:22:18.436Z,29.99
2023-05-04T16:24:44.728Z,29.80
2023-05-04T16:27:11.018Z,29.58
2023-05-04T16:29:37.399Z,29.35
2023-05-04T16:32:03.922Z,29.11
2023-05-04T16:34:30.441Z,28.85
2023-05-04T16:36:56.765Z,28.59
2023-05-04T16:39:26.987Z,28.31
2023-05-04T16:41:53.286Z,28.09
2023-05-04T16:44:19.604Z,27.86
2023-05-04T16:46:46.249Z,27.63
2023-05-04T16:49:14.669Z,27.40
2023-05-04T16:51:41.453Z,27.19
2023-05-04T16:54:07.808Z,26.96
2023-05-04T16:56:34.213Z,26.74
2023-05-04T16:59:00.966Z,26.54
2023-05-04T17:01:27.324Z,26.35
2023-05-04T17:03:53.910Z,26.16
2023-05-04T17:06:20.592Z,25.96
2023-05-04T17:08:46.983Z,25.76
2023-05-04T17:11:13.343Z,25.56
2023-05-04T17:13:39.739Z,25.37
2023-05-04T17:16:06.639Z,25.18
2023-05-04T17:18:33.145Z,24.98
2023-05-04T17:20:59.513Z,24.81
2023-05-04T17:23:25.945Z,24.64
2023-05-04T17:25:52.334Z,24.49
2023-05-04T17:28:18.773Z,24.34
2023-05-04T17:30:45.277Z,24.19
2023-05-04T17:33:11.754Z,24.05
2023-05-04T17:35:38.207Z,23.94
2023-05-04T17:38:04.720Z,23.83
2023-05-04T17:40:31.185Z,23.73
2023-05-04T17:42:57.691Z,23.60
2023-05-04T17:45:24.175Z,23.49
2023-05-04T17:47:51.215Z,23.36
2023-05-04T17:50:17.689Z,23.26
2023-05-04T17:52:44.127Z,23.14
2023-05-04T17:57:57.232Z,22.89
2023-05-04T18:00:24.173Z,22.76
2023-05-04T18:02:50.962Z,22.65
2023-05-04T18:05:17.704Z,22.55
2023-05-04T18:07:44.259Z,22.46
2023-05-04T18:10:11.183Z,22.35
2023-05-04T18:12:38.481Z,22.25
2023-05-04T18:15:08.394Z,22.15
2023-05-04T18:17:37.849Z,22.03
2023-05-04T18:20:07.286Z,21.92
2023-05-04T18:22:34.399Z,21.80
2023-05-04T18:25:01.669Z,21.67
2023-05-04T18:27:33.518Z,21.54
2023-05-04T18:30:00.878Z,21.45
2023-05-04T18:32:27.645Z,21.35
2023-05-04T18:34:54.804Z,21.26
2023-05-04T18:37:21.618Z,21.16
2023-05-04T18:39:48.085Z,21.07
2023-05-04T18:42:14.619Z,20.99
2023-05-04T18:44:41.437Z,20.89
2023-05-04T18:47:08.531Z,20.80
2023-05-04T18:49:35.009Z,20.72
2023-05-04T18:52:01.962Z,20.62
2023-05-04T18:54:32.367Z,20.51
2023-05-04T18:56:59.211Z,20.44
2023-05-04T18:59:26.092Z,20.34
2023-05-04T19:01:53.052Z,20.26
2023-05-04T19:04:19.758Z,20.17
2023-05-04T19:06:47.677Z,20.10
2023-05-04T19:09:14.902Z,20.02
2023-05-04T19:11:41.582Z,19.93
2023-05-04T19:14:08.080Z,19.85
2023-05-04T19:16:34.736Z,19.76
2023-05-04T19:19:01.314Z,19.69
2023-05-04T19:21:28.448Z,19.62
2023-05-04T19:23:55.006Z,19.56
2023-05-04T19:26:21.898Z,19.50
2023-05-04T19:28:48.373Z,19.44
2023-05-04T19:31:15.526Z,19.38
2023-05-04T19:33:48.589Z,19.33
2023-05-04T19:36:16.802Z,19.28
2023-05-04T19:38:43.522Z,19.23
2023-05-04T19:41:10.086Z,19.18
2023-05-04T19:43:38.453Z,19.11
2023-05-04T19:46:05.125Z,19.04
2023-05-04T19:48:31.821Z,18.99
2023-05-04T19:50:58.453Z,18.95
2023-05-04T19:53:25.192Z,18.88
2023-05-04T19:55:51.743Z,18.82
2023-05-04T19:58:19.699Z,18.77
2023-05-04T20:00:46.507Z,18.72
2023-05-04T20:03:13.074Z,18.68
2023-05-04T20:05:40.402Z,18.66
2023-05-04T20:08:06.946Z,18.62
2023-05-04T20:10:33.639Z,18.57
2023-05-04T20:13:00.165Z,18.55
2023-05-04T20:15:26.955Z,18.51
2023-05-04T20:17:53.490Z,18.48
2023-05-04T20:20:21.523Z,18.42
2023-05-04T20:22:51.911Z,18.39
2023-05-04T20:25:19.943Z,18.34
2023-05-04T20:27:48.715Z,18.31
2023-05-04T20:30:15.323Z,18.26
2023-05-04T20:32:42.203Z,18.20
2023-05-04T20:35:13.992Z,18.14
2023-05-04T20:37:40.433Z,18.13
2023-05-04T20:40:08.310Z,18.08
2023-05-04T20:42:35.037Z,18.04
2023-05-04T20:45:01.619Z,18.01
2023-05-04T20:47:28.544Z,17.97
2023-05-04T20:49:55.105Z,17.93
2023-05-04T20:52:21.597Z,17.91
2023-05-04T20:54:48.094Z,17.87
2023-05-04T20:57:14.705Z,17.84
2023-05-04T20:59:41.199Z,17.78
2023-05-04T21:02:07.891Z,17.73
2023-05-04T21:04:34.363Z,17.68
2023-05-04T21:07:00.976Z,17.66
2023-05-04T21:09:27.990Z,17.62
2023-05-04T21:11:54.698Z,17.58
2023-05-04T21:14:21.381Z,17.55
2023-05-04T21:16:47.966Z,17.51
2023-05-04T21:19:14.516Z,17.48
2023-05-04T21:21:41.338Z,17.45
2023-05-04T21:24:13.150Z,17.41
2023-05-04T21:26:40.242Z,17.41
2023-05-04T21:29:11.602Z,17.37
2023-05-04T21:31:38.104Z,17.38
2023-05-04T21:34:04.898Z,17.35
2023-05-04T21:36:31.701Z,17.34
2023-05-04T21:38:58.577Z,17.31
2023-05-04T21:41:25.255Z,17.29
2023-05-04T21:43:51.778Z,17.28
2023-05-04T21:46:18.291Z,17.26
2023-05-04T21:48:44.830Z,17.24
2023-05-04T21:51:11.257Z,17.21
2023-05-04T21:53:37.805Z,17.18
2023-05-04T21:56:08.710Z,17.14
2023-05-04T21:58:37.978Z,17.12
2023-05-04T22:01:05.673Z,17.11
2023-05-04T22:03:32.386Z,17.09
2023-05-04T22:05:59.147Z,17.07
2023-05-04T22:08:26.189Z,17.05
2023-05-04T22:10:54.441Z,17.02
2023-05-04T22:13:21.313Z,17.00
2023-05-04T22:15:50.267Z,16.96
2023-05-04T22:18:17.277Z,16.92
2023-05-04T22:20:44.013Z,16.89
2023-05-04T22:23:11.039Z,16.88
2023-05-04T22:25:38.286Z,16.84
2023-05-04T22:28:05.073Z,16.82
2023-05-04T22:30:32.354Z,16.80
2023-05-04T22:32:59.094Z,16.76
2023-05-04T22:35:25.643Z,16.75
2023-05-04T22:37:52.305Z,16.72
2023-05-04T22:40:19.092Z,16.71
2023-05-04T22:42:45.732Z,16.70
2023-05-04T22:45:14.342Z,16.68
2023-05-04T22:47:41.731Z,16.66
2023-05-04T22:50:09.630Z,16.64
2023-05-04T22:52:36.736Z,16.62
2023-05-04T22:55:03.964Z,16.59
2023-05-04T22:57:30.643Z,16.58
2023-05-04T22:59:57.460Z,16.56
2023-05-04T23:02:24.565Z,16.54
2023-05-04T23:04:51.076Z,16.54
2023-05-04T23:07:17.706Z,16.52
2023-05-04T23:09:47.437Z,16.49
2023-05-04T23:12:15.164Z,16.50
2023-05-04T23:14:41.990Z,16.50
2023-05-04T23:17:09.563Z,16.50
2023-05-04T23:19:36.579Z,16.51
2023-05-04T23:22:03.118Z,16.52
2023-05-04T23:24:29.658Z,16.52
2023-05-04T23:26:56.096Z,16.55
2023-05-04T23:29:22.598Z,16.56
2023-05-04T23:31:49.160Z,16.57
2023-05-04T23:34:16.198Z,16.58
2023-05-04T23:36:42.633Z,16.58
2023-05-04T23:39:09.268Z,16.57
2023-05-04T23:41:35.853Z,16.57
2023-05-04T23:44:03.350Z,16.57
2023-05-04T23:46:30.081Z,16.56
2023-05-04T23:48:56.731Z,16.54
2023-05-04T23:51:23.376Z,16.54
2023-05-04T23:53:49.940Z,16.55
2023-05-04T23:58:57.911Z,16.54
